Jefferson, Pennsylvania
Current Conditions -  °F | °C
As of 9:35 AM on Tuesday 21 Oct 2014 (Local Time) from KAFJ Reporting Station
Overcast Overcast  
Wind Chill: 52°   Ceiling: 800
Heat Index: 52°   Visibility: 5mi
Dew Point: 48°   Wind: 5mph
Humidity: 88%   Direction: 250°WSW
Pressure: 29.9"   Gusts: NA
Location:  39.93°N, 80.06°W
Report Text: KAFJ 211335Z AUTO 25004KT 5SM OVC008 11/09 A2990 RMK AO1
Loading
Personal Weather Stations






























Interactive Weather Map
Tropical Storm Tracking
New forecast layout! Learn more

10-Day Weather Forecast

Advertisements
Track Severe Weather on mobile